createdAt,value
2019-01-24T00:00:09.296Z,55.30
2019-01-24T00:01:09.503Z,58.90
2019-01-24T00:02:09.620Z,54.10
2019-01-24T00:03:09.825Z,55.80
2019-01-24T00:04:13.125Z,58.20
2019-01-24T00:05:11.158Z,55.30
2019-01-24T00:06:10.374Z,55.10
2019-01-24T00:07:10.481Z,59.20
2019-01-24T00:08:10.669Z,58.70
2019-01-24T00:09:10.850Z,52.10
2019-01-24T00:10:11.001Z,54.20
2019-01-24T00:11:11.205Z,59.60
2019-01-24T00:12:11.471Z,54.20
2019-01-24T00:13:11.543Z,56.70
2019-01-24T00:14:11.709Z,53.30
2019-01-24T00:15:11.852Z,57.90
2019-01-24T00:16:12.029Z,52.40
2019-01-24T00:17:12.189Z,55.40
2019-01-24T00:18:12.359Z,52.90
2019-01-24T00:19:12.545Z,54.00
2019-01-24T00:20:12.755Z,55.30
2019-01-24T00:21:12.887Z,51.40
2019-01-24T00:22:13.030Z,55.40
2019-01-24T00:23:13.217Z,49.40
2019-01-24T00:24:13.597Z,55.40
2019-01-24T00:25:13.543Z,53.90
2019-01-24T00:26:13.737Z,52.50
2019-01-24T00:27:13.900Z,52.50
2019-01-24T00:28:14.146Z,49.60
2019-01-24T00:29:14.220Z,54.40
2019-01-24T00:30:14.367Z,51.50
2019-01-24T00:31:14.575Z,59.50
2019-01-24T00:32:14.733Z,51.30
2019-01-24T00:33:14.898Z,55.00
2019-01-24T00:34:15.090Z,52.40
2019-01-24T00:35:15.239Z,54.40
2019-01-24T00:36:15.439Z,51.40
2019-01-24T00:37:15.646Z,53.10
2019-01-24T00:38:15.772Z,54.50
2019-01-24T00:39:15.943Z,52.20
2019-01-24T00:40:16.092Z,52.10
2019-01-24T00:41:16.250Z,55.30
2019-01-24T00:42:16.433Z,58.20
2019-01-24T00:43:16.619Z,52.70
2019-01-24T00:44:16.827Z,52.70
2019-01-24T00:45:17.035Z,54.10
2019-01-24T00:46:17.095Z,55.30
2019-01-24T00:47:17.287Z,49.40
2019-01-24T00:48:17.475Z,51.60
2019-01-24T00:49:17.646Z,55.60
2019-01-24T00:50:17.794Z,50.30
2019-01-24T00:51:17.970Z,55.20
2019-01-24T00:52:18.140Z,51.00
2019-01-24T00:53:18.459Z,48.70
2019-01-24T00:54:18.489Z,53.90
2019-01-24T00:55:18.655Z,51.20
2019-01-24T00:56:18.826Z,54.00
2019-01-24T00:57:18.994Z,49.10
2019-01-24T00:58:19.180Z,54.10
2019-01-24T00:59:19.349Z,50.90
2019-01-24T01:00:19.513Z,52.10
2019-01-24T01:01:19.701Z,50.20
2019-01-24T01:02:19.840Z,51.80
2019-01-24T01:03:19.985Z,52.30
2019-01-24T01:04:20.189Z,52.60
2019-01-24T01:05:20.336Z,49.00
2019-01-24T01:06:20.511Z,53.50
2019-01-24T01:07:20.690Z,51.80
2019-01-24T01:08:20.842Z,51.30
2019-01-24T01:09:21.076Z,52.40
2019-01-24T01:10:21.247Z,53.00
2019-01-24T01:11:21.378Z,49.00
2019-01-24T01:12:21.553Z,53.10
2019-01-24T01:13:21.705Z,52.40
2019-01-24T01:14:21.878Z,51.60
2019-01-24T01:15:22.029Z,50.30
2019-01-24T01:16:22.230Z,49.00
2019-01-24T01:17:22.417Z,52.70
2019-01-24T01:18:22.695Z,52.10
2019-01-24T01:19:22.723Z,52.10
2019-01-24T01:20:22.892Z,49.90
2019-01-24T01:21:23.074Z,48.80
2019-01-24T01:22:23.313Z,54.90
2019-01-24T01:23:23.415Z,54.00
2019-01-24T01:24:23.599Z,49.40
2019-01-24T01:25:23.753Z,49.40
2019-01-24T01:26:24.022Z,56.30
2019-01-24T01:27:24.112Z,50.10
2019-01-24T01:28:24.260Z,50.90
2019-01-24T01:29:24.454Z,51.30
2019-01-24T01:30:24.595Z,50.30
2019-01-24T01:31:24.773Z,51.10
2019-01-24T01:32:24.981Z,50.80
2019-01-24T01:33:25.132Z,50.40
2019-01-24T01:34:25.339Z,50.10
2019-01-24T01:35:25.421Z,54.10
2019-01-24T01:36:25.597Z,51.90
2019-01-24T01:37:25.797Z,53.20
2019-01-24T01:38:25.969Z,55.70
2019-01-24T01:39:26.131Z,53.60
2019-01-24T01:40:26.291Z,54.50
2019-01-24T01:41:26.461Z,53.60
2019-01-24T01:42:26.703Z,53.00
2019-01-24T01:43:26.797Z,51.40
2019-01-24T01:44:26.971Z,53.00
2019-01-24T01:45:27.123Z,51.50
2019-01-24T01:46:27.293Z,53.20
2019-01-24T01:47:27.486Z,52.50
2019-01-24T01:48:27.636Z,49.50
2019-01-24T01:49:27.813Z,49.50
2019-01-24T01:50:28.008Z,52.20
2019-01-24T01:51:28.253Z,52.00
2019-01-24T01:52:28.330Z,52.00
2019-01-24T01:53:28.492Z,52.20
2019-01-24T01:54:28.673Z,54.40
2019-01-24T01:55:28.848Z,53.90
2019-01-24T01:56:29.008Z,55.20
2019-01-24T01:57:29.204Z,53.00
2019-01-24T01:58:29.374Z,50.90
2019-01-24T01:59:29.634Z,55.60
2019-01-24T02:00:29.943Z,54.70
2019-01-24T02:01:29.866Z,53.60
2019-01-24T02:02:30.051Z,54.40
2019-01-24T02:03:30.206Z,54.90
2019-01-24T02:04:30.356Z,53.40
2019-01-24T02:05:30.555Z,50.50
2019-01-24T02:06:30.705Z,53.20
2019-01-24T02:07:31.002Z,50.40
2019-01-24T02:08:31.049Z,52.00
2019-01-24T02:09:31.197Z,52.80
2019-01-24T02:10:31.396Z,55.30
2019-01-24T02:11:31.550Z,54.10
2019-01-24T02:12:31.737Z,48.60
2019-01-24T02:13:31.897Z,55.20
2019-01-24T02:14:32.049Z,52.70
2019-01-24T02:15:32.264Z,51.80
2019-01-24T02:16:32.382Z,50.60
2019-01-24T02:17:32.571Z,50.00
2019-01-24T02:18:32.729Z,54.40
2019-01-24T02:19:32.898Z,52.30
2019-01-24T02:20:33.084Z,55.60
2019-01-24T02:21:33.220Z,51.70
2019-01-24T02:22:33.415Z,52.80
2019-01-24T02:23:33.630Z,50.40
2019-01-24T02:24:33.749Z,54.40
2019-01-24T02:25:33.960Z,50.00
2019-01-24T02:26:34.101Z,53.30
2019-01-24T02:27:34.274Z,49.80
2019-01-24T02:28:34.457Z,51.40
2019-01-24T02:29:34.629Z,50.70
2019-01-24T02:30:34.800Z,50.10
2019-01-24T02:31:35.202Z,50.20
2019-01-24T02:32:35.224Z,51.70
2019-01-24T02:33:35.285Z,65.30
2019-01-24T02:34:35.452Z,50.30
2019-01-24T02:35:35.635Z,65.00
2019-01-24T02:36:35.786Z,58.70
2019-01-24T02:37:35.982Z,57.10
2019-01-24T02:38:36.118Z,59.10
2019-01-24T02:39:36.293Z,57.10
2019-01-24T02:40:36.585Z,69.60
2019-01-24T02:41:36.620Z,76.40
2019-01-24T02:42:36.807Z,69.70
2019-01-24T02:43:36.967Z,59.50
2019-01-24T02:44:37.151Z,62.20
2019-01-24T02:45:37.316Z,64.80
2019-01-24T02:46:37.482Z,65.40
2019-01-24T02:47:37.682Z,61.60
2019-01-24T02:48:37.858Z,57.90
2019-01-24T02:49:37.967Z,56.10
2019-01-24T02:50:38.153Z,56.90
2019-01-24T02:51:38.305Z,68.20
2019-01-24T02:52:38.493Z,52.00
2019-01-24T02:53:38.641Z,64.70
2019-01-24T02:54:38.812Z,62.10
2019-01-24T02:55:38.998Z,63.90
2019-01-24T02:56:39.201Z,53.50
2019-01-24T02:57:39.314Z,52.70
2019-01-24T02:58:39.475Z,53.00
2019-01-24T02:59:39.659Z,65.30
2019-01-24T03:00:39.807Z,51.10
2019-01-24T03:01:39.980Z,62.50
2019-01-24T03:02:40.151Z,55.10
2019-01-24T03:03:40.326Z,66.80
2019-01-24T03:04:40.561Z,56.40
2019-01-24T03:05:40.693Z,59.10
2019-01-24T03:06:40.827Z,58.80
2019-01-24T03:07:40.999Z,70.20
2019-01-24T03:08:41.185Z,57.90
2019-01-24T03:09:41.371Z,59.10
2019-01-24T03:10:41.532Z,55.60
2019-01-24T03:11:41.677Z,49.80
2019-01-24T03:12:41.896Z,53.20
2019-01-24T03:13:42.176Z,58.00
2019-01-24T03:14:42.238Z,56.90
2019-01-24T03:15:42.413Z,58.80
2019-01-24T03:16:42.546Z,59.60
2019-01-24T03:17:42.731Z,60.60
2019-01-24T03:18:42.919Z,52.30
2019-01-24T03:19:43.072Z,53.30
2019-01-24T03:20:43.252Z,59.50
2019-01-24T03:21:43.536Z,55.20
2019-01-24T03:22:43.583Z,57.90
2019-01-24T03:23:43.757Z,58.50
2019-01-24T03:24:43.924Z,54.80
2019-01-24T03:25:44.104Z,52.90
2019-01-24T03:26:44.256Z,51.00
2019-01-24T03:27:44.410Z,54.30
2019-01-24T03:28:44.607Z,51.50
2019-01-24T03:29:44.864Z,52.90
2019-01-24T03:30:44.928Z,51.20
2019-01-24T03:31:45.086Z,59.90
2019-01-24T03:32:45.256Z,55.40
2019-01-24T03:33:45.439Z,55.70
2019-01-24T03:34:45.606Z,56.50
2019-01-24T03:35:45.777Z,65.60
2019-01-24T03:36:45.922Z,62.60
2019-01-24T03:37:46.143Z,58.60
2019-01-24T03:38:46.242Z,53.20
2019-01-24T03:39:46.419Z,54.60
2019-01-24T03:40:46.612Z,61.50
2019-01-24T03:41:46.768Z,52.90
2019-01-24T03:42:46.928Z,52.10
2019-01-24T03:43:47.129Z,58.10
2019-01-24T03:44:47.288Z,58.00
2019-01-24T03:45:47.476Z,56.60
2019-01-24T03:46:47.674Z,55.10
2019-01-24T03:47:47.785Z,51.70
2019-01-24T03:48:47.967Z,58.20
2019-01-24T03:49:48.128Z,52.50
2019-01-24T03:50:48.289Z,55.40
2019-01-24T03:51:48.453Z,56.20
2019-01-24T03:52:48.628Z,57.10
2019-01-24T03:53:48.820Z,59.00
2019-01-24T03:54:49.081Z,57.00
2019-01-24T03:55:49.144Z,55.20
2019-01-24T03:56:49.306Z,58.20
2019-01-24T03:57:49.475Z,55.70
2019-01-24T03:58:49.656Z,62.00
2019-01-24T03:59:49.828Z,59.30
2019-01-24T04:00:50.012Z,59.10
2019-01-24T04:01:50.140Z,54.40
2019-01-24T04:02:50.485Z,59.30
2019-01-24T04:03:50.505Z,62.60
2019-01-24T04:04:50.678Z,60.50
2019-01-24T04:05:50.854Z,58.90
2019-01-24T04:06:50.982Z,59.80
2019-01-24T04:07:51.167Z,62.60
2019-01-24T04:08:51.367Z,58.90
2019-01-24T04:09:51.534Z,63.30
2019-01-24T04:10:51.723Z,64.30
2019-01-24T04:11:51.844Z,58.10
2019-01-24T04:12:52.004Z,68.40
2019-01-24T04:13:52.205Z,59.60
2019-01-24T04:14:52.373Z,54.20
2019-01-24T04:15:52.527Z,57.20
2019-01-24T04:16:52.715Z,57.00
2019-01-24T04:17:52.879Z,60.00
2019-01-24T04:18:53.095Z,56.90
2019-01-24T04:19:53.274Z,60.20
2019-01-24T04:20:53.394Z,56.40
2019-01-24T04:21:53.574Z,58.60
2019-01-24T04:22:53.737Z,64.90
2019-01-24T04:23:53.924Z,60.70
2019-01-24T04:24:54.076Z,56.40
2019-01-24T04:25:54.241Z,54.20
2019-01-24T04:26:54.463Z,55.40
2019-01-24T04:27:54.680Z,58.10
2019-01-24T04:28:54.757Z,59.50
2019-01-24T04:29:54.916Z,57.30
2019-01-24T04:30:55.113Z,55.60
2019-01-24T04:31:55.280Z,63.10
2019-01-24T04:32:55.432Z,64.10
2019-01-24T04:33:55.618Z,62.40
2019-01-24T04:34:55.769Z,55.70
2019-01-24T04:35:56.029Z,58.30
2019-01-24T04:36:56.124Z,58.60
2019-01-24T04:37:56.272Z,56.90
2019-01-24T04:38:56.465Z,57.60
2019-01-24T04:39:56.598Z,61.20
2019-01-24T04:40:56.808Z,59.70
2019-01-24T04:41:56.966Z,58.00
2019-01-24T04:42:57.119Z,62.00
2019-01-24T04:43:57.375Z,63.70
2019-01-24T04:44:57.443Z,60.50
2019-01-24T04:45:57.618Z,60.40
2019-01-24T04:46:57.801Z,56.00
2019-01-24T04:47:57.956Z,60.20
2019-01-24T04:48:58.143Z,60.70
2019-01-24T04:49:58.292Z,59.50
2019-01-24T04:50:58.478Z,60.40
2019-01-24T04:51:58.663Z,60.80
2019-01-24T04:52:58.784Z,61.00
2019-01-24T04:53:58.978Z,57.20
2019-01-24T04:54:59.134Z,60.80
2019-01-24T04:55:59.290Z,63.90
2019-01-24T04:56:59.484Z,59.80
2019-01-24T04:57:59.628Z,63.10
2019-01-24T04:58:59.829Z,64.90
2019-01-24T05:00:00.197Z,59.90
2019-01-24T05:01:00.243Z,56.40
2019-01-24T05:02:00.348Z,60.80
2019-01-24T05:03:00.487Z,62.10
2019-01-24T05:04:00.684Z,56.30
2019-01-24T05:05:00.854Z,58.60
2019-01-24T05:06:01.028Z,57.90
2019-01-24T05:07:01.208Z,55.10
2019-01-24T05:08:01.366Z,64.60
2019-01-24T05:09:01.622Z,59.40
2019-01-24T05:10:02.307Z,58.90
2019-01-24T05:11:01.883Z,59.30
2019-01-24T05:12:02.051Z,56.20
2019-01-24T05:13:02.200Z,56.60
2019-01-24T05:14:02.353Z,55.50
2019-01-24T05:15:02.518Z,59.40
2019-01-24T05:16:02.721Z,60.60
2019-01-24T05:17:03.252Z,56.40
2019-01-24T05:18:03.042Z,56.00
2019-01-24T05:19:03.196Z,54.60
2019-01-24T05:20:03.414Z,60.20
2019-01-24T05:21:03.597Z,55.00
2019-01-24T05:22:03.766Z,60.20
2019-01-24T05:23:03.911Z,61.40
2019-01-24T05:24:04.088Z,54.60
2019-01-24T05:25:04.284Z,62.40
2019-01-24T05:26:04.447Z,56.10
2019-01-24T05:27:04.622Z,57.60
2019-01-24T05:28:04.773Z,56.50
2019-01-24T05:29:04.941Z,56.40
2019-01-24T05:30:05.128Z,59.00
2019-01-24T05:31:05.267Z,58.50
2019-01-24T05:32:05.464Z,53.40
2019-01-24T05:33:05.687Z,54.40
2019-01-24T05:34:05.782Z,56.30
2019-01-24T05:35:05.976Z,56.30
2019-01-24T05:36:06.145Z,58.80
2019-01-24T05:37:06.305Z,66.90
2019-01-24T05:38:06.470Z,57.20
2019-01-24T05:39:06.634Z,58.70
2019-01-24T05:40:06.828Z,58.80
2019-01-24T05:41:07.016Z,57.50
2019-01-24T05:42:07.245Z,59.90
2019-01-24T05:43:07.318Z,62.60
2019-01-24T05:44:07.488Z,59.40
2019-01-24T05:45:07.676Z,54.20
2019-01-24T05:46:07.836Z,58.00
2019-01-24T05:47:08.014Z,52.00
2019-01-24T05:48:08.151Z,56.10
2019-01-24T05:49:08.336Z,53.10
2019-01-24T05:50:08.663Z,56.50
2019-01-24T05:51:08.714Z,51.60
2019-01-24T05:52:08.872Z,55.40
2019-01-24T05:53:09.043Z,52.40
2019-01-24T05:54:09.197Z,53.90
2019-01-24T05:55:09.387Z,53.00
2019-01-24T05:56:09.561Z,56.00
2019-01-24T05:57:09.727Z,54.50
2019-01-24T05:58:09.908Z,52.10
2019-01-24T05:59:10.044Z,53.70
2019-01-24T06:00:10.227Z,50.20
2019-01-24T06:01:10.396Z,54.20
2019-01-24T06:02:10.558Z,51.40
2019-01-24T06:03:10.718Z,53.30
2019-01-24T06:04:10.866Z,53.10
2019-01-24T06:05:11.075Z,50.30
2019-01-24T06:06:11.308Z,50.10
2019-01-24T06:07:11.411Z,48.70
2019-01-24T06:08:11.568Z,50.00
2019-01-24T06:09:11.737Z,47.70
2019-01-24T06:10:11.904Z,48.30
2019-01-24T06:11:12.103Z,52.70
2019-01-24T06:12:12.257Z,48.70
2019-01-24T06:13:12.415Z,48.70
2019-01-24T06:14:12.630Z,52.50
2019-01-24T06:15:12.803Z,50.30
2019-01-24T06:16:12.938Z,48.70
2019-01-24T06:17:13.117Z,52.70
2019-01-24T06:18:13.292Z,51.00
2019-01-24T06:19:13.454Z,55.90
2019-01-24T06:20:13.643Z,49.70
2019-01-24T06:21:13.812Z,49.80
2019-01-24T06:22:13.963Z,43.50
2019-01-24T06:23:14.288Z,46.20
2019-01-24T06:24:14.324Z,48.10
2019-01-24T06:25:14.513Z,43.20
2019-01-24T06:26:14.661Z,48.20
2019-01-24T06:27:14.829Z,46.20
2019-01-24T06:28:15.032Z,42.80
2019-01-24T06:29:15.193Z,47.10
2019-01-24T06:30:15.382Z,46.30
2019-01-24T06:31:15.618Z,43.50
2019-01-24T06:32:15.701Z,42.50
2019-01-24T06:33:15.901Z,45.90
2019-01-24T06:34:16.044Z,45.50
2019-01-24T06:35:16.233Z,41.20
2019-01-24T06:36:16.405Z,49.00
2019-01-24T06:37:16.537Z,46.40
2019-01-24T06:38:16.731Z,46.40
2019-01-24T06:39:16.976Z,43.40
2019-01-24T06:40:17.061Z,45.20
2019-01-24T06:41:17.237Z,43.50
2019-01-24T06:42:17.389Z,43.80
2019-01-24T06:43:17.564Z,40.80
2019-01-24T06:44:17.728Z,46.30
2019-01-24T06:45:17.916Z,46.10
2019-01-24T06:46:18.077Z,43.40
2019-01-24T06:47:18.288Z,47.00
2019-01-24T06:48:18.383Z,51.80
2019-01-24T06:49:18.544Z,78.20
2019-01-24T06:50:18.745Z,49.90
2019-01-24T06:51:18.912Z,46.20
2019-01-24T06:52:19.078Z,43.10
2019-01-24T06:53:19.264Z,41.70
2019-01-24T06:54:19.416Z,40.80
2019-01-24T06:55:19.616Z,43.00
2019-01-24T06:56:19.839Z,43.50
2019-01-24T06:57:20.157Z,45.40
2019-01-24T06:58:20.113Z,40.30
2019-01-24T06:59:20.275Z,39.20
2019-01-24T07:00:20.436Z,41.40
2019-01-24T07:01:20.620Z,41.70
2019-01-24T07:02:20.787Z,43.40
2019-01-24T07:03:20.975Z,45.40
2019-01-24T07:04:21.209Z,40.90
2019-01-24T07:05:21.383Z,44.70
2019-01-24T07:06:21.482Z,40.60
2019-01-24T07:07:21.633Z,42.60
2019-01-24T07:08:21.814Z,46.90
2019-01-24T07:09:21.959Z,42.60
2019-01-24T07:10:22.160Z,44.80
2019-01-24T07:11:22.323Z,40.00
2019-01-24T07:12:22.593Z,44.10
2019-01-24T07:13:22.660Z,40.20
2019-01-24T07:14:22.814Z,44.80
2019-01-24T07:15:23.004Z,42.30
2019-01-24T07:16:23.157Z,44.10
2019-01-24T07:17:23.323Z,41.60
2019-01-24T07:18:23.509Z,44.90
2019-01-24T07:19:23.662Z,41.90
2019-01-24T07:20:23.897Z,42.40
2019-01-24T07:21:24.001Z,41.30
2019-01-24T07:22:24.145Z,39.70
2019-01-24T07:23:24.349Z,40.70
2019-01-24T07:24:24.533Z,44.60
2019-01-24T07:25:24.668Z,40.00
2019-01-24T07:26:24.853Z,41.30
2019-01-24T07:27:25.005Z,45.20
2019-01-24T07:28:25.211Z,41.00
2019-01-24T07:29:25.339Z,41.20
2019-01-24T07:30:25.525Z,37.40
2019-01-24T07:31:25.727Z,43.30
2019-01-24T07:32:25.868Z,44.40
2019-01-24T07:33:26.063Z,39.70
2019-01-24T07:34:26.191Z,39.60
2019-01-24T07:35:26.387Z,44.40
2019-01-24T07:36:26.632Z,45.00
2019-01-24T07:37:26.801Z,42.70
2019-01-24T07:38:26.902Z,45.40
2019-01-24T07:39:27.050Z,40.60
2019-01-24T07:40:27.237Z,43.20
2019-01-24T07:41:27.431Z,39.70
2019-01-24T07:42:27.582Z,45.90
2019-01-24T07:43:27.763Z,45.80
2019-01-24T07:44:27.914Z,45.70
2019-01-24T07:45:28.197Z,40.00
2019-01-24T07:46:28.292Z,44.20
2019-01-24T07:47:28.430Z,41.20
2019-01-24T07:48:28.610Z,42.40
2019-01-24T07:49:28.753Z,43.50
2019-01-24T07:50:28.923Z,41.30
2019-01-24T07:51:29.131Z,40.30
2019-01-24T07:52:29.280Z,44.40
2019-01-24T07:53:29.538Z,35.80
2019-01-24T07:54:29.598Z,41.40
2019-01-24T07:55:29.752Z,43.60
2019-01-24T07:56:29.969Z,41.50
2019-01-24T07:57:30.130Z,44.50
2019-01-24T07:58:30.299Z,42.70
2019-01-24T07:59:30.453Z,41.50
2019-01-24T08:00:30.626Z,35.80
2019-01-24T08:01:30.854Z,40.30
2019-01-24T08:02:30.961Z,39.00
2019-01-24T08:03:31.136Z,39.20
2019-01-24T08:04:31.282Z,40.70
2019-01-24T08:05:31.452Z,38.30
2019-01-24T08:06:31.640Z,43.40
2019-01-24T08:07:31.799Z,37.80
2019-01-24T08:08:31.984Z,40.40
2019-01-24T08:09:32.185Z,35.80
2019-01-24T08:10:32.350Z,36.90
2019-01-24T08:11:32.512Z,38.90
2019-01-24T08:12:32.667Z,37.00
2019-01-24T08:13:32.856Z,36.90
2019-01-24T08:14:33.018Z,36.30
2019-01-24T08:15:33.191Z,35.80
2019-01-24T08:16:33.378Z,38.40
2019-01-24T08:17:33.555Z,40.60
2019-01-24T08:18:33.800Z,36.00
2019-01-24T08:19:33.865Z,38.90
2019-01-24T08:20:34.036Z,37.40
2019-01-24T08:21:34.223Z,42.60
2019-01-24T08:22:34.385Z,37.40
2019-01-24T08:23:34.545Z,36.60
2019-01-24T08:24:34.691Z,36.70
2019-01-24T08:25:34.878Z,39.10
2019-01-24T08:26:35.231Z,36.90
2019-01-24T08:27:35.218Z,40.40
2019-01-24T08:28:35.374Z,40.90
2019-01-24T08:29:35.558Z,40.00
2019-01-24T08:30:35.746Z,37.50
2019-01-24T08:31:35.948Z,38.20
2019-01-24T08:32:36.121Z,47.00
2019-01-24T08:33:36.253Z,39.00
2019-01-24T08:34:36.464Z,38.30
2019-01-24T08:35:36.824Z,37.80
2019-01-24T08:36:36.794Z,37.10
2019-01-24T08:37:36.955Z,36.90
2019-01-24T08:38:37.110Z,33.60
2019-01-24T08:39:37.296Z,38.20
2019-01-24T08:40:37.467Z,36.30
2019-01-24T08:41:37.637Z,39.80
2019-01-24T08:42:37.886Z,38.70
2019-01-24T08:43:37.951Z,38.90
2019-01-24T08:44:38.143Z,41.50
2019-01-24T08:45:38.300Z,37.80
2019-01-24T08:46:38.478Z,42.10
2019-01-24T08:47:38.661Z,38.10
2019-01-24T08:48:38.832Z,40.60
2019-01-24T08:49:39.021Z,44.60
2019-01-24T08:50:39.194Z,38.70
2019-01-24T08:51:39.429Z,40.00
2019-01-24T08:52:39.520Z,42.80
2019-01-24T08:53:39.702Z,37.80
2019-01-24T08:54:39.881Z,42.10
2019-01-24T08:55:40.031Z,39.00
2019-01-24T08:56:40.234Z,44.20
2019-01-24T08:57:40.356Z,39.40
2019-01-24T08:58:40.531Z,40.00
2019-01-24T08:59:40.834Z,41.10
2019-01-24T09:00:40.880Z,38.60
2019-01-24T09:01:41.080Z,40.10
2019-01-24T09:02:41.195Z,41.40
2019-01-24T09:03:41.386Z,41.40
2019-01-24T09:04:41.588Z,39.60
2019-01-24T09:05:41.740Z,38.90
2019-01-24T09:06:41.933Z,40.90
2019-01-24T09:07:42.174Z,41.40
2019-01-24T09:08:42.246Z,38.30
2019-01-24T09:09:42.446Z,42.50
2019-01-24T09:10:42.596Z,40.90
2019-01-24T09:11:42.787Z,38.90
2019-01-24T09:12:42.938Z,42.60
2019-01-24T09:13:43.123Z,43.30
2019-01-24T09:14:43.279Z,41.20
2019-01-24T09:15:43.481Z,41.30
2019-01-24T09:16:43.643Z,41.40
2019-01-24T09:17:43.780Z,44.50
2019-01-24T09:18:43.972Z,42.30
2019-01-24T09:19:44.131Z,43.10
2019-01-24T09:20:44.263Z,42.50
2019-01-24T09:21:44.464Z,42.20
2019-01-24T09:22:44.651Z,41.50
2019-01-24T09:23:44.882Z,40.30
2019-01-24T09:24:44.994Z,39.80
2019-01-24T09:25:45.126Z,42.90
2019-01-24T09:26:45.356Z,43.00
2019-01-24T09:27:45.499Z,42.90
2019-01-24T09:28:45.642Z,39.40
2019-01-24T09:29:45.839Z,39.80
2019-01-24T09:30:45.990Z,38.30
2019-01-24T09:31:46.162Z,45.00
2019-01-24T09:32:46.486Z,42.70
2019-01-24T09:33:46.509Z,46.00
2019-01-24T09:34:46.692Z,45.10
2019-01-24T09:35:46.844Z,40.70
2019-01-24T09:36:47.013Z,46.30
2019-01-24T09:37:47.201Z,42.80
2019-01-24T09:38:47.386Z,44.50
2019-01-24T09:39:47.569Z,46.00
2019-01-24T09:40:47.869Z,46.40
2019-01-24T09:41:47.891Z,41.30
2019-01-24T09:42:48.097Z,39.70
2019-01-24T09:43:48.259Z,43.70
2019-01-24T09:44:48.441Z,42.30
2019-01-24T09:45:48.596Z,38.40
2019-01-24T09:46:48.768Z,41.70
2019-01-24T09:47:48.941Z,42.40
2019-01-24T09:48:49.179Z,43.60
2019-01-24T09:49:49.286Z,38.00
2019-01-24T09:50:49.445Z,40.50
2019-01-24T09:51:49.635Z,37.40
2019-01-24T09:52:49.802Z,40.40
2019-01-24T09:53:49.965Z,41.20
2019-01-24T09:54:50.151Z,39.90
2019-01-24T09:55:50.303Z,38.20
2019-01-24T09:56:50.543Z,38.30
2019-01-24T09:57:50.644Z,40.20
2019-01-24T09:58:50.808Z,42.40
2019-01-24T09:59:50.991Z,38.70
2019-01-24T10:00:51.150Z,38.20
2019-01-24T10:01:51.325Z,40.60
2019-01-24T10:02:51.521Z,40.30
2019-01-24T10:03:51.679Z,42.10
2019-01-24T10:04:51.864Z,44.10
2019-01-24T10:05:52.071Z,42.10
2019-01-24T10:06:52.196Z,40.10
2019-01-24T10:07:52.385Z,45.20
2019-01-24T10:08:52.543Z,42.20
2019-01-24T10:09:52.716Z,41.70
2019-01-24T10:10:52.858Z,39.40
2019-01-24T10:11:53.045Z,39.70
2019-01-24T10:12:53.502Z,41.00
2019-01-24T10:13:53.518Z,40.00
2019-01-24T10:14:53.577Z,42.00
2019-01-24T10:15:53.707Z,42.50
2019-01-24T10:16:53.897Z,39.20
2019-01-24T10:17:54.073Z,40.70
2019-01-24T10:18:54.238Z,46.30
2019-01-24T10:19:54.413Z,39.10
2019-01-24T10:20:54.571Z,42.60
2019-01-24T10:21:54.860Z,45.00
2019-01-24T10:22:54.915Z,43.50
2019-01-24T10:23:57.997Z,43.60
2019-01-24T10:24:55.261Z,45.90
2019-01-24T10:25:55.413Z,46.90
2019-01-24T10:26:55.586Z,44.30
2019-01-24T10:27:55.766Z,46.00
2019-01-24T10:28:55.937Z,44.80
2019-01-24T10:29:56.199Z,43.80
2019-01-24T10:30:56.256Z,46.60
2019-01-24T10:31:56.433Z,39.80
2019-01-24T10:32:56.602Z,41.90
2019-01-24T10:33:56.774Z,40.40
2019-01-24T10:34:56.956Z,42.50
2019-01-24T10:35:57.111Z,44.30
2019-01-24T10:36:57.280Z,43.20
2019-01-24T10:37:57.534Z,44.40
2019-01-24T10:38:57.596Z,45.00
2019-01-24T10:39:57.791Z,40.90
2019-01-24T10:40:57.939Z,44.30
2019-01-24T10:41:58.119Z,40.90
2019-01-24T10:42:58.310Z,43.60
2019-01-24T10:43:58.477Z,43.80
2019-01-24T10:44:58.627Z,42.80
2019-01-24T10:45:58.826Z,43.90
2019-01-24T10:46:59.010Z,44.20
2019-01-24T10:47:59.167Z,39.60
2019-01-24T10:48:59.390Z,44.40
2019-01-24T10:49:59.466Z,40.20
2019-01-24T10:50:59.648Z,41.10
2019-01-24T10:51:59.820Z,41.20
2019-01-24T10:53:00.026Z,45.90
2019-01-24T10:54:00.164Z,42.40
2019-01-24T10:55:00.458Z,42.20
2019-01-24T10:56:00.513Z,43.50
2019-01-24T10:57:00.744Z,38.80
2019-01-24T10:58:00.906Z,41.00
2019-01-24T10:59:01.021Z,42.30
2019-01-24T11:00:01.186Z,42.20
2019-01-24T11:01:01.364Z,40.10
2019-01-24T11:02:02.876Z,43.60
2019-01-24T11:03:02.064Z,47.80
2019-01-24T11:04:01.907Z,43.40
2019-01-24T11:05:02.054Z,42.80
2019-01-24T11:06:02.227Z,43.60
2019-01-24T11:07:02.392Z,42.50
2019-01-24T11:08:02.588Z,40.60
2019-01-24T11:09:02.760Z,43.70
2019-01-24T11:10:02.916Z,43.00
2019-01-24T11:11:03.151Z,41.80
2019-01-24T11:12:03.341Z,43.40
2019-01-24T11:13:03.558Z,44.10
2019-01-24T11:14:03.751Z,48.50
2019-01-24T11:15:03.909Z,45.60
2019-01-24T11:16:04.105Z,53.20
2019-01-24T11:17:04.255Z,48.00
2019-01-24T11:18:04.448Z,53.70
2019-01-24T11:19:04.667Z,48.20
2019-01-24T11:20:04.782Z,55.50
2019-01-24T11:21:04.985Z,53.40
2019-01-24T11:22:05.143Z,54.20
2019-01-24T11:23:05.339Z,52.40
2019-01-24T11:24:05.533Z,54.70
2019-01-24T11:25:05.669Z,53.10
2019-01-24T11:26:05.891Z,52.60
2019-01-24T11:27:06.049Z,57.90
2019-01-24T11:28:06.319Z,55.80
2019-01-24T11:29:06.401Z,55.80
2019-01-24T11:30:06.564Z,61.20
2019-01-24T11:31:06.757Z,59.20
2019-01-24T11:32:06.917Z,63.30
2019-01-24T11:33:07.110Z,63.60
2019-01-24T11:34:07.328Z,55.60
2019-01-24T11:35:07.430Z,60.70
2019-01-24T11:36:07.746Z,62.50
2019-01-24T11:37:07.808Z,57.40
2019-01-24T11:38:08.000Z,57.60
2019-01-24T11:39:08.180Z,59.70
2019-01-24T11:40:08.334Z,57.90
2019-01-24T11:41:08.535Z,59.90
2019-01-24T11:42:08.695Z,58.60
2019-01-24T11:43:08.890Z,62.50
2019-01-24T11:44:09.134Z,60.60
2019-01-24T11:45:09.158Z,59.40
2019-01-24T11:46:09.328Z,61.90
2019-01-24T11:47:09.499Z,58.00
2019-01-24T11:48:09.675Z,58.00
2019-01-24T11:49:09.867Z,61.10
2019-01-24T11:50:10.020Z,62.20
2019-01-24T11:51:10.438Z,68.00
2019-01-24T11:52:10.621Z,67.70
2019-01-24T11:53:10.596Z,68.60
2019-01-24T11:54:10.761Z,68.10
2019-01-24T11:55:10.951Z,63.90
2019-01-24T11:56:11.107Z,63.60
2019-01-24T11:57:11.264Z,66.00
2019-01-24T11:58:11.482Z,67.60
2019-01-24T11:59:11.644Z,62.10
2019-01-24T12:00:11.878Z,67.80
2019-01-24T12:01:12.019Z,64.60
2019-01-24T12:02:12.163Z,67.20
2019-01-24T12:03:12.364Z,65.70
2019-01-24T12:04:12.535Z,62.80
2019-01-24T12:05:12.732Z,65.50
2019-01-24T12:06:12.907Z,68.30
2019-01-24T12:07:13.060Z,65.90
2019-01-24T12:08:13.236Z,66.30
2019-01-24T12:09:13.551Z,68.70
2019-01-24T12:10:13.630Z,68.10
2019-01-24T12:11:13.808Z,68.70
2019-01-24T12:12:13.949Z,85.50
2019-01-24T12:13:14.139Z,63.50
2019-01-24T12:14:14.340Z,69.30
2019-01-24T12:15:14.537Z,66.90
2019-01-24T12:16:14.711Z,65.70
2019-01-24T12:17:14.963Z,64.10
2019-01-24T12:18:15.048Z,69.00
2019-01-24T12:19:15.250Z,71.10
2019-01-24T12:20:15.459Z,68.90
2019-01-24T12:21:15.608Z,70.10
2019-01-24T12:22:15.767Z,62.60
2019-01-24T12:23:15.923Z,68.80
2019-01-24T12:24:16.136Z,67.20
2019-01-24T12:25:16.389Z,66.80
2019-01-24T12:26:16.486Z,66.90
2019-01-24T12:27:16.651Z,67.50
2019-01-24T12:28:16.838Z,68.30
2019-01-24T12:29:17.007Z,66.60
2019-01-24T12:30:17.195Z,72.10
2019-01-24T12:31:17.387Z,67.10
2019-01-24T12:32:17.548Z,69.00
2019-01-24T12:33:17.772Z,70.70
2019-01-24T12:34:17.891Z,64.30
2019-01-24T12:35:18.052Z,64.60
2019-01-24T12:36:19.431Z,67.70
2019-01-24T12:37:18.412Z,61.10
2019-01-24T12:38:18.626Z,69.00
2019-01-24T12:39:18.803Z,65.10
2019-01-24T12:40:18.941Z,62.50
2019-01-24T12:41:19.142Z,63.80
2019-01-24T12:42:19.364Z,60.80
2019-01-24T12:43:19.480Z,68.30
2019-01-24T12:44:21.242Z,63.90
2019-01-24T12:45:19.821Z,67.50
2019-01-24T12:46:19.998Z,60.60
2019-01-24T12:47:20.173Z,62.00
2019-01-24T12:48:20.407Z,60.90
2019-01-24T12:49:21.292Z,66.90
2019-01-24T12:50:20.855Z,62.00
2019-01-24T12:51:20.877Z,63.40
2019-01-24T12:52:21.042Z,65.10
2019-01-24T12:53:21.228Z,60.90
2019-01-24T12:54:21.408Z,61.50